sensor_id;sensor_type;location;lat;lon;timestamp;P1;durP1;ratioP1;P2;durP2;ratioP2
71902;SDS011;59778;50.310;18.780;2022-10-16T00:08:43;22.47;;;13.23;;
71902;SDS011;59778;50.310;18.780;2022-10-16T00:24:05;29.90;;;13.50;;
71902;SDS011;59778;50.310;18.780;2022-10-16T00:39:29;22.53;;;12.93;;
71902;SDS011;59778;50.310;18.780;2022-10-16T00:54:50;26.67;;;14.50;;
71902;SDS011;59778;50.310;18.780;2022-10-16T01:10:23;26.33;;;14.07;;
71902;SDS011;59778;50.310;18.780;2022-10-16T01:41:33;27.50;;;14.60;;
71902;SDS011;59778;50.310;18.780;2022-10-16T01:56:58;26.30;;;14.90;;
71902;SDS011;59778;50.310;18.780;2022-10-16T02:12:23;28.50;;;13.70;;
71902;SDS011;59778;50.310;18.780;2022-10-16T02:43:30;27.73;;;15.43;;
71902;SDS011;59778;50.310;18.780;2022-10-16T02:58:51;27.40;;;14.23;;
71902;SDS011;59778;50.310;18.780;2022-10-16T03:14:12;27.63;;;14.10;;
71902;SDS011;59778;50.310;18.780;2022-10-16T03:29:33;26.37;;;14.10;;
71902;SDS011;59778;50.310;18.780;2022-10-16T03:44:54;30.10;;;14.83;;
71902;SDS011;59778;50.310;18.780;2022-10-16T04:00:15;33.80;;;17.37;;
71902;SDS011;59778;50.310;18.780;2022-10-16T04:15:36;31.03;;;16.90;;
71902;SDS011;59778;50.310;18.780;2022-10-16T04:30:58;30.03;;;15.43;;
71902;SDS011;59778;50.310;18.780;2022-10-16T04:46:19;42.50;;;16.77;;
71902;SDS011;59778;50.310;18.780;2022-10-16T05:01:40;36.80;;;15.73;;
71902;SDS011;59778;50.310;18.780;2022-10-16T05:17:01;47.23;;;22.20;;
71902;SDS011;59778;50.310;18.780;2022-10-16T05:32:22;31.70;;;16.43;;
71902;SDS011;59778;50.310;18.780;2022-10-16T05:47:43;56.53;;;26.43;;
71902;SDS011;59778;50.310;18.780;2022-10-16T06:03:04;35.93;;;16.57;;
71902;SDS011;59778;50.310;18.780;2022-10-16T06:18:27;30.23;;;16.80;;
71902;SDS011;59778;50.310;18.780;2022-10-16T06:33:52;30.90;;;16.23;;
71902;SDS011;59778;50.310;18.780;2022-10-16T06:49:13;32.97;;;14.37;;
71902;SDS011;59778;50.310;18.780;2022-10-16T07:04:36;28.77;;;14.87;;
71902;SDS011;59778;50.310;18.780;2022-10-16T07:19:57;24.50;;;13.30;;
71902;SDS011;59778;50.310;18.780;2022-10-16T07:35:18;22.20;;;11.77;;
71902;SDS011;59778;50.310;18.780;2022-10-16T07:50:40;18.57;;;9.33;;
71902;SDS011;59778;50.310;18.780;2022-10-16T08:06:02;18.80;;;9.57;;
71902;SDS011;59778;50.310;18.780;2022-10-16T08:21:24;21.33;;;8.60;;
71902;SDS011;59778;50.310;18.780;2022-10-16T08:36:45;16.40;;;8.93;;
71902;SDS011;59778;50.310;18.780;2022-10-16T08:52:10;13.57;;;7.40;;
71902;SDS011;59778;50.310;18.780;2022-10-16T09:38:28;13.63;;;8.47;;
71902;SDS011;59778;50.310;18.780;2022-10-16T09:53:54;15.77;;;8.23;;
71902;SDS011;59778;50.310;18.780;2022-10-16T10:09:25;14.53;;;8.37;;
71902;SDS011;59778;50.310;18.780;2022-10-16T10:41:19;15.60;;;8.23;;
71902;SDS011;59778;50.310;18.780;2022-10-16T11:11:58;16.23;;;8.20;;
71902;SDS011;59778;50.310;18.780;2022-10-16T11:27:28;14.90;;;8.47;;
71902;SDS011;59778;50.310;18.780;2022-10-16T11:59:03;13.87;;;7.83;;
71902;SDS011;59778;50.310;18.780;2022-10-16T12:14:39;16.30;;;7.70;;
71902;SDS011;59778;50.310;18.780;2022-10-16T12:30:04;16.00;;;8.00;;
71902;SDS011;59778;50.310;18.780;2022-10-16T13:00:57;14.50;;;8.37;;
71902;SDS011;59778;50.310;18.780;2022-10-16T13:31:51;12.17;;;7.00;;
71902;SDS011;59778;50.310;18.780;2022-10-16T14:02:38;13.77;;;8.13;;
71902;SDS011;59778;50.310;18.780;2022-10-16T14:18:01;14.37;;;8.73;;
71902;SDS011;59778;50.310;18.780;2022-10-16T14:33:33;17.20;;;9.20;;
71902;SDS011;59778;50.310;18.780;2022-10-16T14:48:59;27.07;;;12.90;;
71902;SDS011;59778;50.310;18.780;2022-10-16T15:04:24;16.63;;;8.57;;
71902;SDS011;59778;50.310;18.780;2022-10-16T15:19:45;23.37;;;10.37;;
71902;SDS011;59778;50.310;18.780;2022-10-16T15:35:10;22.57;;;12.57;;
71902;SDS011;59778;50.310;18.780;2022-10-16T15:50:31;19.60;;;10.57;;
71902;SDS011;59778;50.310;18.780;2022-10-16T16:05:53;17.33;;;10.27;;
71902;SDS011;59778;50.310;18.780;2022-10-16T16:21:15;28.70;;;12.17;;
71902;SDS011;59778;50.310;18.780;2022-10-16T16:36:36;25.60;;;13.93;;
71902;SDS011;59778;50.310;18.780;2022-10-16T16:51:57;23.77;;;13.57;;
71902;SDS011;59778;50.310;18.780;2022-10-16T17:07:19;31.07;;;17.87;;
71902;SDS011;59778;50.310;18.780;2022-10-16T17:22:40;32.23;;;17.20;;
71902;SDS011;59778;50.310;18.780;2022-10-16T17:38:01;38.33;;;20.00;;
71902;SDS011;59778;50.310;18.780;2022-10-16T17:53:22;33.27;;;20.10;;
71902;SDS011;59778;50.310;18.780;2022-10-16T18:08:43;32.10;;;17.83;;
71902;SDS011;59778;50.310;18.780;2022-10-16T18:24:05;32.00;;;17.47;;
71902;SDS011;59778;50.310;18.780;2022-10-16T18:39:26;34.77;;;17.07;;
71902;SDS011;59778;50.310;18.780;2022-10-16T18:54:47;31.47;;;16.30;;
71902;SDS011;59778;50.310;18.780;2022-10-16T19:10:08;29.43;;;15.47;;
71902;SDS011;59778;50.310;18.780;2022-10-16T19:25:30;28.37;;;14.43;;
71902;SDS011;59778;50.310;18.780;2022-10-16T19:40:51;24.73;;;13.90;;
71902;SDS011;59778;50.310;18.780;2022-10-16T19:56:14;28.17;;;14.43;;
71902;SDS011;59778;50.310;18.780;2022-10-16T20:11:37;30.67;;;15.00;;
71902;SDS011;59778;50.310;18.780;2022-10-16T20:26:58;34.77;;;19.60;;
71902;SDS011;59778;50.310;18.780;2022-10-16T20:42:20;36.03;;;18.87;;
71902;SDS011;59778;50.310;18.780;2022-10-16T20:57:41;39.17;;;21.27;;
71902;SDS011;59778;50.310;18.780;2022-10-16T21:13:03;56.90;;;24.53;;
71902;SDS011;59778;50.310;18.780;2022-10-16T21:28:24;58.80;;;23.67;;
71902;SDS011;59778;50.310;18.780;2022-10-16T21:43:45;44.23;;;21.67;;
71902;SDS011;59778;50.310;18.780;2022-10-16T21:59:06;56.03;;;23.23;;
71902;SDS011;59778;50.310;18.780;2022-10-16T22:14:27;51.07;;;24.57;;
71902;SDS011;59778;50.310;18.780;2022-10-16T22:29:51;41.53;;;21.30;;
71902;SDS011;59778;50.310;18.780;2022-10-16T22:45:13;42.13;;;21.27;;
71902;SDS011;59778;50.310;18.780;2022-10-16T23:00:34;39.47;;;19.97;;
71902;SDS011;59778;50.310;18.780;2022-10-16T23:15:55;36.80;;;19.93;;
71902;SDS011;59778;50.310;18.780;2022-10-16T23:31:16;46.73;;;22.50;;
71902;SDS011;59778;50.310;18.780;2022-10-16T23:46:38;51.00;;;23.13;;
